createdAt,value
2022-10-05T00:00:23.184Z,13.40
2022-10-05T00:02:52.429Z,13.44
2022-10-05T00:05:27.992Z,13.47
2022-10-05T00:07:58.081Z,13.46
2022-10-05T00:10:26.263Z,13.47
2022-10-05T00:12:54.182Z,13.49
2022-10-05T00:15:24.445Z,13.47
2022-10-05T00:17:52.353Z,13.49
2022-10-05T00:20:23.885Z,13.50
2022-10-05T00:22:53.380Z,13.51
2022-10-05T00:25:22.571Z,13.49
2022-10-05T00:27:56.326Z,13.48
2022-10-05T00:30:28.073Z,13.48
2022-10-05T00:32:59.457Z,13.52
2022-10-05T00:35:29.563Z,13.49
2022-10-05T00:37:57.661Z,13.49
2022-10-05T00:40:34.571Z,13.49
2022-10-05T00:43:22.575Z,13.50
2022-10-05T00:45:54.760Z,13.49
2022-10-05T00:48:26.521Z,13.51
2022-10-05T00:51:13.131Z,13.49
2022-10-05T00:53:45.206Z,13.45
2022-10-05T00:56:30.309Z,13.47
2022-10-05T00:59:07.065Z,13.46
2022-10-05T01:01:40.077Z,13.46
2022-10-05T01:04:14.585Z,13.44
2022-10-05T01:06:49.456Z,13.42
2022-10-05T01:09:23.109Z,13.41
2022-10-05T01:11:58.139Z,13.42
2022-10-05T01:14:29.388Z,13.40
2022-10-05T01:17:03.060Z,13.40
2022-10-05T01:19:45.934Z,13.42
2022-10-05T01:22:23.675Z,13.43
2022-10-05T01:25:03.851Z,13.42
2022-10-05T01:27:41.069Z,13.43
2022-10-05T01:30:13.622Z,13.43
2022-10-05T01:32:47.574Z,13.45
2022-10-05T01:35:24.607Z,13.50
2022-10-05T01:38:00.197Z,13.50
2022-10-05T01:40:35.512Z,13.49
2022-10-05T01:43:11.857Z,13.48
2022-10-05T01:45:46.944Z,13.47
2022-10-05T01:48:20.790Z,13.45
2022-10-05T01:50:55.293Z,13.44
2022-10-05T01:53:29.456Z,13.44
2022-10-05T01:56:03.793Z,13.40
2022-10-05T01:58:40.003Z,13.37
2022-10-05T02:01:11.340Z,13.38
2022-10-05T02:03:41.461Z,13.33
2022-10-05T02:06:12.711Z,13.33
2022-10-05T02:08:43.341Z,13.32
2022-10-05T02:11:13.645Z,13.31
2022-10-05T02:13:44.670Z,13.31
2022-10-05T02:16:17.791Z,13.28
2022-10-05T02:18:50.998Z,13.29
2022-10-05T02:21:20.064Z,13.31
2022-10-05T02:23:50.460Z,13.29
2022-10-05T02:26:19.009Z,13.26
2022-10-05T02:28:50.871Z,13.24
2022-10-05T02:31:22.762Z,13.25
2022-10-05T02:33:50.830Z,13.23
2022-10-05T02:36:21.837Z,13.24
2022-10-05T02:39:02.225Z,13.24
2022-10-05T02:41:39.705Z,13.24
2022-10-05T02:44:13.366Z,13.26
2022-10-05T02:46:47.005Z,13.29
2022-10-05T02:49:21.914Z,13.27
2022-10-05T02:51:54.362Z,13.30
2022-10-05T02:54:33.436Z,13.30
2022-10-05T02:57:05.151Z,13.33
2022-10-05T02:59:37.768Z,13.33
2022-10-05T03:02:13.610Z,13.36
2022-10-05T03:04:46.122Z,13.34
2022-10-05T03:07:17.304Z,13.34
2022-10-05T03:09:49.785Z,13.35
2022-10-05T03:12:30.153Z,13.37
2022-10-05T03:15:05.088Z,13.37
2022-10-05T03:17:37.896Z,13.36
2022-10-05T03:20:16.187Z,13.36
2022-10-05T03:22:49.795Z,13.36
2022-10-05T03:25:37.847Z,13.40
2022-10-05T03:28:09.983Z,13.36
2022-10-05T03:30:43.678Z,13.38
2022-10-05T03:33:16.113Z,13.36
2022-10-05T03:35:49.921Z,13.39
2022-10-05T03:38:22.202Z,13.39
2022-10-05T03:40:57.110Z,13.37
2022-10-05T03:43:37.409Z,13.40
2022-10-05T03:46:11.376Z,13.38
2022-10-05T03:48:42.990Z,13.37
2022-10-05T03:51:17.214Z,13.41
2022-10-05T03:53:47.280Z,13.39
2022-10-05T03:56:17.797Z,13.43
2022-10-05T03:58:51.547Z,13.41
2022-10-05T04:01:24.204Z,13.44
2022-10-05T04:03:55.390Z,13.44
2022-10-05T04:06:25.966Z,13.45
2022-10-05T04:08:57.392Z,13.42
2022-10-05T04:11:28.407Z,13.40
2022-10-05T04:14:00.426Z,13.42
2022-10-05T04:16:32.821Z,13.40
2022-10-05T04:19:04.193Z,13.38
2022-10-05T04:21:35.292Z,13.43
2022-10-05T04:24:07.763Z,13.42
2022-10-05T04:26:39.707Z,13.42
2022-10-05T04:29:15.107Z,13.43
2022-10-05T04:31:58.377Z,13.44
2022-10-05T04:34:45.000Z,13.47
2022-10-05T04:37:19.574Z,13.53
2022-10-05T04:39:55.972Z,13.47
2022-10-05T04:42:30.694Z,13.49
2022-10-05T04:45:10.562Z,13.45
2022-10-05T04:48:04.146Z,13.43
2022-10-05T04:50:40.737Z,13.43
2022-10-05T04:53:16.270Z,13.44
2022-10-05T04:55:52.485Z,13.43
2022-10-05T04:58:27.926Z,13.42
2022-10-05T05:01:07.478Z,13.40
2022-10-05T05:03:51.584Z,13.43
2022-10-05T05:06:30.501Z,13.40
2022-10-05T05:09:28.277Z,13.40
2022-10-05T05:12:20.174Z,13.43
2022-10-05T05:15:17.695Z,13.43
2022-10-05T05:17:58.036Z,13.44
2022-10-05T05:20:34.841Z,13.43
2022-10-05T05:23:07.220Z,13.47
2022-10-05T05:25:40.425Z,13.45
2022-10-05T05:28:17.753Z,13.43
2022-10-05T05:30:49.159Z,13.43
2022-10-05T05:33:23.015Z,13.41
2022-10-05T05:36:25.469Z,13.38
2022-10-05T05:39:00.128Z,13.42
2022-10-05T05:41:32.063Z,13.41
2022-10-05T05:44:07.255Z,13.41
2022-10-05T05:47:01.791Z,13.42
2022-10-05T05:49:32.185Z,13.41
2022-10-05T05:52:05.694Z,13.38
2022-10-05T05:54:38.513Z,13.42
2022-10-05T05:57:11.446Z,13.42
2022-10-05T05:59:48.633Z,13.41
2022-10-05T06:02:20.486Z,13.45
2022-10-05T06:04:52.313Z,13.44
2022-10-05T06:07:30.168Z,13.49
2022-10-05T06:10:01.715Z,13.51
2022-10-05T06:12:32.997Z,13.52
2022-10-05T06:15:04.356Z,13.54
2022-10-05T06:17:38.362Z,13.53
2022-10-05T06:20:13.154Z,13.57
2022-10-05T06:22:44.221Z,13.55
2022-10-05T06:25:20.442Z,13.52
2022-10-05T06:28:03.114Z,13.54
2022-10-05T06:30:37.930Z,13.54
2022-10-05T06:33:12.855Z,13.60
2022-10-05T06:35:51.572Z,13.61
2022-10-05T06:38:37.551Z,13.62
2022-10-05T06:41:13.158Z,13.64
2022-10-05T06:43:51.334Z,13.65
2022-10-05T06:46:24.035Z,13.66
2022-10-05T06:49:13.072Z,13.66
2022-10-05T06:51:46.465Z,13.68
2022-10-05T06:54:24.927Z,13.66
2022-10-05T06:56:58.235Z,13.71
2022-10-05T06:59:31.462Z,13.73
2022-10-05T07:02:06.325Z,13.72
2022-10-05T07:04:57.190Z,13.71
2022-10-05T07:07:27.786Z,13.74
2022-10-05T07:10:09.086Z,13.75
2022-10-05T07:12:51.223Z,13.79
2022-10-05T07:15:38.037Z,13.82
2022-10-05T07:18:17.057Z,13.82
2022-10-05T07:20:50.745Z,13.85
2022-10-05T07:23:25.960Z,13.90
2022-10-05T07:26:03.334Z,13.91
2022-10-05T07:28:36.019Z,13.90
2022-10-05T07:31:07.986Z,13.92
2022-10-05T07:33:41.873Z,13.94
2022-10-05T07:36:32.246Z,13.98
2022-10-05T07:39:03.516Z,13.99
2022-10-05T07:41:40.196Z,14.01
2022-10-05T07:44:13.449Z,14.02
2022-10-05T07:46:51.115Z,14.01
2022-10-05T07:49:24.485Z,14.03
2022-10-05T07:51:56.483Z,14.07
2022-10-05T07:54:28.486Z,14.09
2022-10-05T07:57:03.132Z,14.12
2022-10-05T07:59:35.816Z,14.18
2022-10-05T08:02:08.310Z,14.26
2022-10-05T08:04:41.870Z,14.32
2022-10-05T08:07:14.608Z,14.34
2022-10-05T08:09:45.494Z,14.35
2022-10-05T08:12:37.045Z,14.38
2022-10-05T08:15:08.390Z,14.42
2022-10-05T08:17:45.444Z,14.44
2022-10-05T08:20:36.955Z,14.47
2022-10-05T08:23:13.357Z,14.50
2022-10-05T08:25:47.549Z,14.58
2022-10-05T08:28:20.867Z,14.60
2022-10-05T08:30:58.174Z,14.69
2022-10-05T08:33:28.652Z,14.67
2022-10-05T08:36:04.827Z,14.71
2022-10-05T08:38:34.109Z,14.71
2022-10-05T08:41:29.766Z,14.69
2022-10-05T08:44:36.698Z,14.66
2022-10-05T08:47:17.025Z,14.80
2022-10-05T08:50:11.579Z,14.90
2022-10-05T08:52:56.021Z,14.95
2022-10-05T08:55:33.297Z,14.98
2022-10-05T08:58:24.606Z,15.04
2022-10-05T09:00:58.876Z,14.99
2022-10-05T09:03:58.581Z,15.05
2022-10-05T09:07:02.074Z,15.09
2022-10-05T09:09:51.214Z,15.06
2022-10-05T09:13:07.113Z,15.10
2022-10-05T09:15:44.216Z,15.09
2022-10-05T09:18:36.223Z,15.12
2022-10-05T09:21:08.042Z,15.15
2022-10-05T09:23:39.668Z,15.24
2022-10-05T09:26:10.367Z,15.29
2022-10-05T09:28:51.886Z,15.32
2022-10-05T09:31:29.440Z,15.43
2022-10-05T09:34:30.591Z,15.38
2022-10-05T09:37:28.833Z,15.37
2022-10-05T09:40:29.057Z,15.44
2022-10-05T09:43:34.895Z,15.35
2022-10-05T09:46:26.193Z,15.32
2022-10-05T09:49:11.640Z,15.20
2022-10-05T09:52:06.974Z,15.28
2022-10-05T09:54:52.353Z,15.28
2022-10-05T09:57:53.090Z,15.25
2022-10-05T10:00:26.518Z,15.28
2022-10-05T10:03:33.270Z,15.29
2022-10-05T10:06:35.136Z,15.26
2022-10-05T10:09:14.952Z,15.22
2022-10-05T10:12:15.224Z,15.30
2022-10-05T10:15:38.042Z,15.28
2022-10-05T10:18:15.577Z,15.24
2022-10-05T10:21:00.328Z,15.20
2022-10-05T10:23:42.862Z,15.25
2022-10-05T10:26:40.681Z,15.31
2022-10-05T10:29:50.053Z,15.25
2022-10-05T10:32:44.198Z,15.35
2022-10-05T10:35:32.159Z,15.35
2022-10-05T10:38:31.069Z,15.29
2022-10-05T10:41:25.458Z,15.41
2022-10-05T10:44:11.135Z,15.29
2022-10-05T10:46:46.281Z,15.28
2022-10-05T10:49:26.541Z,15.38
2022-10-05T10:52:11.714Z,15.45
2022-10-05T10:55:00.430Z,15.47
2022-10-05T10:57:38.282Z,15.48
2022-10-05T11:00:25.235Z,15.55
2022-10-05T11:03:09.083Z,15.50
2022-10-05T11:05:53.970Z,15.52
2022-10-05T11:08:47.473Z,15.40
2022-10-05T11:11:27.175Z,15.54
2022-10-05T11:14:21.341Z,15.59
2022-10-05T11:17:08.181Z,15.59
2022-10-05T11:20:04.060Z,15.59
2022-10-05T11:22:43.074Z,15.61
2022-10-05T11:25:52.093Z,15.58
2022-10-05T11:28:39.725Z,15.72
2022-10-05T11:31:45.976Z,15.64
2022-10-05T11:34:45.582Z,15.68
2022-10-05T11:37:41.026Z,15.71
2022-10-05T11:40:35.018Z,15.76
2022-10-05T11:43:28.700Z,15.84
2022-10-05T11:46:07.689Z,15.79
2022-10-05T11:48:53.395Z,15.92
2022-10-05T11:51:30.264Z,15.87
2022-10-05T11:54:08.011Z,15.95
2022-10-05T11:56:37.402Z,15.99
2022-10-05T11:59:13.355Z,16.01
2022-10-05T12:01:46.974Z,16.03
2022-10-05T12:04:20.137Z,16.03
2022-10-05T12:07:02.954Z,16.11
2022-10-05T12:10:05.683Z,16.11
2022-10-05T12:12:37.770Z,16.23
2022-10-05T12:15:13.745Z,16.11
2022-10-05T12:17:45.216Z,16.25
2022-10-05T12:20:18.597Z,16.27
2022-10-05T12:22:49.422Z,16.35
2022-10-05T12:25:22.718Z,16.32
2022-10-05T12:27:53.545Z,16.44
2022-10-05T12:30:27.700Z,16.53
2022-10-05T12:33:02.345Z,16.62
2022-10-05T12:35:48.047Z,16.57
2022-10-05T12:38:23.064Z,16.53
2022-10-05T12:40:54.684Z,16.64
2022-10-05T12:43:26.910Z,16.73
2022-10-05T12:46:02.181Z,16.70
2022-10-05T12:48:40.106Z,16.74
2022-10-05T12:51:13.492Z,16.82
2022-10-05T12:53:50.514Z,16.85
2022-10-05T12:56:25.449Z,16.86
2022-10-05T12:58:57.458Z,16.87
2022-10-05T13:01:35.206Z,16.93
2022-10-05T13:04:18.448Z,16.95
2022-10-05T13:06:59.186Z,16.97
2022-10-05T13:09:35.217Z,16.97
2022-10-05T13:12:07.625Z,17.05
2022-10-05T13:14:50.519Z,17.12
2022-10-05T13:17:22.989Z,17.07
2022-10-05T13:19:57.119Z,17.14
2022-10-05T13:22:35.523Z,17.19
2022-10-05T13:25:22.045Z,17.31
2022-10-05T13:27:54.875Z,17.21
2022-10-05T13:30:23.444Z,17.32
2022-10-05T13:32:55.908Z,17.39
2022-10-05T13:35:33.995Z,17.45
2022-10-05T13:38:11.211Z,17.47
2022-10-05T13:40:43.432Z,17.52
2022-10-05T13:43:20.203Z,17.48
2022-10-05T13:45:55.719Z,17.55
2022-10-05T13:48:44.211Z,17.66
2022-10-05T13:51:17.107Z,17.70
2022-10-05T13:53:49.528Z,17.61
2022-10-05T13:56:22.103Z,17.72
2022-10-05T13:58:54.244Z,17.69
2022-10-05T14:01:36.100Z,17.67
2022-10-05T14:04:11.865Z,17.68
2022-10-05T14:06:40.289Z,17.72
2022-10-05T14:09:14.768Z,17.64
2022-10-05T14:11:49.738Z,17.64
2022-10-05T14:14:25.373Z,17.69
2022-10-05T14:16:54.802Z,17.63
2022-10-05T14:19:27.991Z,17.63
2022-10-05T14:22:01.187Z,17.68
2022-10-05T14:24:43.661Z,17.54
2022-10-05T14:27:21.199Z,17.58
2022-10-05T14:29:57.001Z,17.67
2022-10-05T14:32:27.122Z,17.59
2022-10-05T14:35:05.108Z,17.68
2022-10-05T14:37:43.265Z,17.63
2022-10-05T14:40:28.747Z,17.62
2022-10-05T14:42:57.368Z,17.69
2022-10-05T14:45:26.812Z,17.65
2022-10-05T14:48:00.199Z,17.65
2022-10-05T14:50:29.782Z,17.63
2022-10-05T14:53:16.678Z,17.65
2022-10-05T14:55:58.133Z,17.67
2022-10-05T14:58:46.976Z,17.69
2022-10-05T15:01:18.897Z,17.67
2022-10-05T15:03:57.946Z,17.63
2022-10-05T15:06:31.161Z,17.59
2022-10-05T15:09:30.249Z,17.60
2022-10-05T15:12:01.616Z,17.53
2022-10-05T15:14:32.501Z,17.51
2022-10-05T15:17:03.580Z,17.57
2022-10-05T15:19:42.205Z,17.60
2022-10-05T15:22:20.146Z,17.67
2022-10-05T15:24:57.812Z,17.64
2022-10-05T15:27:35.857Z,17.66
2022-10-05T15:30:11.339Z,17.65
2022-10-05T15:32:50.020Z,17.65
2022-10-05T15:35:50.195Z,17.66
2022-10-05T15:38:22.045Z,17.65
2022-10-05T15:40:59.650Z,17.60
2022-10-05T15:43:46.605Z,17.51
2022-10-05T15:46:19.095Z,17.48
2022-10-05T15:48:53.355Z,17.44
2022-10-05T15:51:43.606Z,17.49
2022-10-05T15:54:31.915Z,17.51
2022-10-05T15:57:03.578Z,17.45
2022-10-05T15:59:38.657Z,17.49
2022-10-05T16:02:16.037Z,17.38
2022-10-05T16:04:49.107Z,17.35
2022-10-05T16:07:39.283Z,17.30
2022-10-05T16:10:14.879Z,17.28
2022-10-05T16:12:48.782Z,17.22
2022-10-05T16:15:26.338Z,17.14
2022-10-05T16:18:18.269Z,17.09
2022-10-05T16:20:51.136Z,17.00
2022-10-05T16:23:27.674Z,17.04
2022-10-05T16:26:05.868Z,16.99
2022-10-05T16:28:40.967Z,16.94
2022-10-05T16:31:17.863Z,16.89
2022-10-05T16:33:56.384Z,16.83
2022-10-05T16:36:33.550Z,16.79
2022-10-05T16:39:05.174Z,16.75
2022-10-05T16:41:37.311Z,16.76
2022-10-05T16:44:11.405Z,16.75
2022-10-05T16:46:46.944Z,16.67
2022-10-05T16:49:22.314Z,16.68
2022-10-05T16:51:59.083Z,16.68
2022-10-05T16:54:31.620Z,16.66
2022-10-05T16:57:03.819Z,16.66
2022-10-05T16:59:49.506Z,16.69
2022-10-05T17:02:40.847Z,16.70
2022-10-05T17:05:20.122Z,16.69
2022-10-05T17:08:03.772Z,16.67
2022-10-05T17:10:46.721Z,16.65
2022-10-05T17:13:32.548Z,16.68
2022-10-05T17:16:05.799Z,16.66
2022-10-05T17:19:02.244Z,16.68
2022-10-05T17:21:34.788Z,16.68
2022-10-05T17:24:14.633Z,16.65
2022-10-05T17:26:57.803Z,16.65
2022-10-05T17:29:30.881Z,16.67
2022-10-05T17:32:12.811Z,16.64
2022-10-05T17:35:18.236Z,16.61
2022-10-05T17:38:09.321Z,16.61
2022-10-05T17:40:38.947Z,16.68
2022-10-05T17:43:25.363Z,16.65
2022-10-05T17:45:56.834Z,16.72
2022-10-05T17:48:44.135Z,16.75
2022-10-05T17:51:37.054Z,16.74
2022-10-05T17:54:40.639Z,16.77
2022-10-05T17:57:19.402Z,16.78
2022-10-05T17:59:52.465Z,16.82
2022-10-05T18:02:23.159Z,16.79
2022-10-05T18:04:52.535Z,16.90
2022-10-05T18:07:23.810Z,16.81
2022-10-05T18:10:00.008Z,16.78
2022-10-05T18:12:39.983Z,16.73
2022-10-05T18:15:34.097Z,16.82
2022-10-05T18:18:35.754Z,16.83
2022-10-05T18:21:15.602Z,16.78
2022-10-05T18:23:49.059Z,16.74
2022-10-05T18:26:26.574Z,16.73
2022-10-05T18:29:13.946Z,16.69
2022-10-05T18:31:50.021Z,16.76
2022-10-05T18:34:27.549Z,16.73
2022-10-05T18:37:21.322Z,16.75
2022-10-05T18:40:03.489Z,16.72
2022-10-05T18:42:37.652Z,16.67
2022-10-05T18:45:20.576Z,16.53
2022-10-05T18:47:56.232Z,16.56
2022-10-05T18:50:28.263Z,16.57
2022-10-05T18:53:13.387Z,16.56
2022-10-05T18:55:46.938Z,16.59
2022-10-05T18:58:22.260Z,16.54
2022-10-05T19:01:19.203Z,16.66
2022-10-05T19:03:56.278Z,16.61
2022-10-05T19:06:27.635Z,16.72
2022-10-05T19:09:05.674Z,16.68
2022-10-05T19:11:40.900Z,16.77
2022-10-05T19:14:26.524Z,16.74
2022-10-05T19:17:01.662Z,16.78
2022-10-05T19:19:49.488Z,16.68
2022-10-05T19:22:26.045Z,16.73
2022-10-05T19:25:14.459Z,16.83
2022-10-05T19:27:55.173Z,17.01
2022-10-05T19:30:25.259Z,16.89
2022-10-05T19:33:15.121Z,17.08
2022-10-05T19:35:53.657Z,17.01
2022-10-05T19:38:28.961Z,16.90
2022-10-05T19:41:02.648Z,16.91
2022-10-05T19:43:50.407Z,17.15
2022-10-05T19:46:25.029Z,17.11
2022-10-05T19:48:54.869Z,17.14
2022-10-05T19:51:29.374Z,17.03
2022-10-05T19:53:59.094Z,17.16
2022-10-05T19:56:30.977Z,17.01
2022-10-05T19:59:13.199Z,16.97
2022-10-05T20:01:44.373Z,17.11
2022-10-05T20:04:12.297Z,17.09
2022-10-05T20:06:40.607Z,17.06
2022-10-05T20:09:20.478Z,17.07
2022-10-05T20:11:52.158Z,17.03
2022-10-05T20:14:22.339Z,17.05
2022-10-05T20:17:35.072Z,16.97
2022-10-05T20:20:31.422Z,17.05
2022-10-05T20:23:21.253Z,16.95
2022-10-05T20:26:09.818Z,16.86
2022-10-05T20:28:37.855Z,16.84
2022-10-05T20:31:08.808Z,16.90
2022-10-05T20:33:36.797Z,16.80
2022-10-05T20:36:05.727Z,16.75
2022-10-05T20:38:40.053Z,16.73
2022-10-05T20:41:08.996Z,16.91
2022-10-05T20:43:39.054Z,16.89
2022-10-05T20:46:08.659Z,16.95
2022-10-05T20:48:36.634Z,16.84
2022-10-05T20:51:04.551Z,16.92
2022-10-05T20:53:32.849Z,16.88
2022-10-05T20:56:02.494Z,16.76
2022-10-05T20:58:30.819Z,16.75
2022-10-05T21:01:19.672Z,16.69
2022-10-05T21:03:49.691Z,16.85
2022-10-05T21:06:18.033Z,16.72
2022-10-05T21:08:46.382Z,16.84
2022-10-05T21:11:14.645Z,16.86
2022-10-05T21:13:44.757Z,16.92
2022-10-05T21:16:13.542Z,16.86
2022-10-05T21:18:41.534Z,16.84
2022-10-05T21:21:10.812Z,16.82
2022-10-05T21:23:38.707Z,16.93
2022-10-05T21:26:07.399Z,16.73
2022-10-05T21:28:35.459Z,16.78
2022-10-05T21:31:03.423Z,16.84
2022-10-05T21:33:31.681Z,16.89
2022-10-05T21:35:59.953Z,16.79
2022-10-05T21:38:29.964Z,16.72
2022-10-05T21:40:58.397Z,16.83
2022-10-05T21:43:26.735Z,16.78
2022-10-05T21:45:55.820Z,16.83
2022-10-05T21:48:23.959Z,16.91
2022-10-05T21:50:51.889Z,16.97
2022-10-05T21:53:22.785Z,16.97
2022-10-05T21:55:52.713Z,17.01
2022-10-05T21:58:22.111Z,16.95
2022-10-05T22:00:50.375Z,16.99
2022-10-05T22:03:18.282Z,17.07
2022-10-05T22:05:46.292Z,16.97
2022-10-05T22:08:21.129Z,16.95
2022-10-05T22:10:49.951Z,16.95
2022-10-05T22:13:19.212Z,16.92
2022-10-05T22:15:47.189Z,17.02
2022-10-05T22:18:18.509Z,16.92
2022-10-05T22:20:46.862Z,16.86
2022-10-05T22:23:14.839Z,16.92
2022-10-05T22:25:43.614Z,16.93
2022-10-05T22:28:13.381Z,16.86
2022-10-05T22:30:44.448Z,16.82
2022-10-05T22:33:12.370Z,16.83
2022-10-05T22:35:40.695Z,16.48
2022-10-05T22:38:08.601Z,16.18
2022-10-05T22:40:37.523Z,15.89
2022-10-05T22:43:05.409Z,15.81
2022-10-05T22:45:33.357Z,15.66
2022-10-05T22:48:03.784Z,15.54
2022-10-05T22:50:31.722Z,15.66
2022-10-05T22:52:59.642Z,15.44
2022-10-05T22:55:27.582Z,15.50
2022-10-05T22:57:55.495Z,15.51
2022-10-05T23:00:35.221Z,15.46
2022-10-05T23:03:12.898Z,15.53
2022-10-05T23:05:41.024Z,15.53
2022-10-05T23:08:09.044Z,15.56
2022-10-05T23:10:36.946Z,15.39
2022-10-05T23:13:05.067Z,15.43
2022-10-05T23:15:33.626Z,15.41
2022-10-05T23:18:01.636Z,15.36
2022-10-05T23:20:30.884Z,15.33
2022-10-05T23:23:00.433Z,15.25
2022-10-05T23:25:28.340Z,15.24
2022-10-05T23:27:56.347Z,15.30
2022-10-05T23:30:24.261Z,15.28
2022-10-05T23:32:52.403Z,15.23
2022-10-05T23:35:20.270Z,15.18
2022-10-05T23:37:49.592Z,15.15
2022-10-05T23:40:17.758Z,15.21
2022-10-05T23:42:45.994Z,15.15
2022-10-05T23:45:14.234Z,15.20
2022-10-05T23:47:42.427Z,15.17
2022-10-05T23:50:10.865Z,15.18
2022-10-05T23:52:39.102Z,15.19
2022-10-05T23:55:09.064Z,15.21
2022-10-05T23:57:38.304Z,15.22
